Time;durP1;ratioP1;P1;durP2;ratioP2;P2;SDS_P1;SDS_P2;PMS_P1;PMS_P2;Temp;Humidity;BMP_temperature;BMP_pressure;BME280_temperature;BME280_humidity;BME280_pressure;Samples;Min_cycle;Max_cycle;Signal;HPM_P1;HPM_P2
2023/11/05 00:02:38;;;;;;;1.17;0.20;;;;;;;11.67;77.03;96611.38;10405015;28;20275;-66
2023/11/05 00:07:44;;;;;;;1.00;0.20;;;;;;;11.66;77.25;96615.13;10420913;28;20038;-69
2023/11/05 00:12:49;;;;;;;1.33;0.30;;;;;;;11.65;77.30;96612.72;10410373;28;20049;-69
2023/11/05 00:17:51;;;;;;;2.58;0.20;;;;;;;11.63;77.20;96602.25;10389209;28;20129;-70
2023/11/05 00:22:52;;;;;;;1.55;0.20;;;;;;;11.42;78.21;96590.75;10425537;28;20053;-70
2023/11/05 00:27:54;;;;;;;0.77;0.50;;;;;;;11.31;78.32;96590.00;10438214;28;20052;-69
2023/11/05 00:32:55;;;;;;;2.38;0.20;;;;;;;11.31;78.06;96590.00;10429302;28;20041;-69
2023/11/05 00:37:57;;;;;;;4.22;0.30;;;;;;;11.26;78.53;96587.31;10428554;28;20045;-69
2023/11/05 00:42:58;;;;;;;2.55;0.20;;;;;;;11.31;78.59;96592.69;10417099;28;20500;-69
2023/11/05 00:48:00;;;;;;;6.00;0.55;;;;;;;11.40;78.24;96571.41;10434846;28;20045;-70
2023/11/05 00:53:01;;;;;;;2.15;0.25;;;;;;;11.46;77.90;96561.44;10420177;28;20056;-70
2023/11/05 00:58:03;;;;;;;2.47;0.20;;;;;;;11.54;77.82;96563.56;10418520;28;20073;-70
2023/11/05 01:03:04;;;;;;;2.35;0.10;;;;;;;11.53;77.82;96556.53;10403239;28;20098;-70
2023/11/05 01:08:06;;;;;;;1.67;0.47;;;;;;;11.58;77.78;96553.06;10404683;28;20045;-70
2023/11/05 01:13:07;;;;;;;1.83;0.40;;;;;;;11.67;77.34;96557.56;10431443;28;20064;-70
2023/11/05 01:18:09;;;;;;;3.40;0.10;;;;;;;11.71;77.29;96541.69;10415514;28;20044;-70
2023/11/05 01:23:10;;;;;;;1.85;0.10;;;;;;;11.62;77.49;96537.97;10435632;28;20098;-70
2023/11/05 01:28:12;;;;;;;1.55;0.10;;;;;;;11.52;78.26;96544.19;10426324;28;20049;-70
2023/11/05 01:33:13;;;;;;;1.70;0.10;;;;;;;11.42;78.48;96528.13;10432204;28;20049;-71
2023/11/05 01:38:15;;;;;;;2.38;0.10;;;;;;;11.47;78.07;96507.38;10429715;28;20344;-71
2023/11/05 01:43:16;;;;;;;0.50;0.35;;;;;;;11.35;78.61;96496.13;10438703;28;20056;-71
2023/11/05 01:48:17;;;;;;;0.73;0.20;;;;;;;11.40;78.65;96488.03;10437002;28;20041;-71
2023/11/05 01:53:19;;;;;;;0.70;0.10;;;;;;;11.43;78.24;96475.94;10428050;28;20053;-71
2023/11/05 01:58:21;;;;;;;2.88;0.15;;;;;;;11.38;78.77;96462.53;10427863;28;20041;-71
2023/11/05 02:03:24;;;;;;;2.75;0.20;;;;;;;11.40;78.67;96454.97;10425806;28;20045;-71
2023/11/05 02:08:25;;;;;;;3.08;0.15;;;;;;;11.46;78.68;96451.19;10431004;28;20038;-71
2023/11/05 02:13:42;;;;;;;2.35;0.10;;;;;;;11.46;78.36;96438.53;10426420;28;20045;-72
2023/11/05 02:18:44;;;;;;;1.05;0.15;;;;;;;11.50;78.60;96425.34;10408784;28;20501;-71
2023/11/05 02:23:47;;;;;;;0.82;0.20;;;;;;;11.50;78.71;96409.19;10386687;28;20085;-71
2023/11/05 02:28:48;;;;;;;0.73;0.10;;;;;;;11.55;78.76;96379.56;10416524;28;20045;-71
2023/11/05 02:33:50;;;;;;;1.02;0.17;;;;;;;11.57;78.94;96393.56;10427866;28;20034;-71
2023/11/05 02:38:51;;;;;;;1.75;0.10;;;;;;;11.61;78.72;96380.34;10442220;28;20076;-71
2023/11/05 02:43:53;;;;;;;1.50;0.10;;;;;;;11.67;78.10;96377.34;10436154;28;20132;-71
2023/11/05 02:48:54;;;;;;;1.73;0.30;;;;;;;11.69;78.19;96374.38;10429311;28;20144;-72
2023/11/05 02:53:56;;;;;;;0.75;0.10;;;;;;;11.76;78.05;96371.34;10427905;28;20052;-71
2023/11/05 02:58:57;;;;;;;3.05;0.10;;;;;;;11.85;77.47;96358.91;10423794;28;20046;-71
2023/11/05 03:03:59;;;;;;;1.70;0.10;;;;;;;11.89;77.56;96370.75;10433183;28;20059;-71
2023/11/05 03:09:00;;;;;;;0.20;0.10;;;;;;;11.95;76.79;96364.22;10457699;28;20037;-70
2023/11/05 03:14:01;;;;;;;1.60;0.10;;;;;;;12.02;76.78;96363.88;10457096;28;20544;-70
2023/11/05 03:19:03;;;;;;;1.52;0.10;;;;;;;12.09;76.45;96357.06;10443497;28;20059;-70
2023/11/05 03:24:05;;;;;;;4.18;0.80;;;;;;;12.15;75.94;96362.41;10442374;28;20060;-70
2023/11/05 03:29:07;;;;;;;0.52;0.13;;;;;;;12.22;75.53;96347.53;10424662;28;20327;-69
2023/11/05 03:34:09;;;;;;;0.50;0.10;;;;;;;12.25;74.84;96355.03;10430880;28;20072;-70
2023/11/05 03:39:10;;;;;;;1.80;0.10;;;;;;;12.33;74.98;96350.13;10434788;28;20045;-69
2023/11/05 03:44:12;;;;;;;1.20;0.20;;;;;;;12.34;74.78;96352.50;10429292;28;20052;-69
2023/11/05 03:49:13;;;;;;;2.88;0.13;;;;;;;12.37;74.33;96362.72;10427183;28;20053;-69
2023/11/05 03:54:15;;;;;;;1.48;0.17;;;;;;;12.46;74.04;96357.47;10434945;28;20047;-69
2023/11/05 03:59:16;;;;;;;1.95;0.10;;;;;;;12.41;74.24;96355.66;10439929;28;20518;-69
2023/11/05 04:04:18;;;;;;;6.07;0.35;;;;;;;12.38;74.06;96340.09;10447656;28;20381;-69
2023/11/05 04:09:20;;;;;;;1.80;0.17;;;;;;;12.37;73.73;96335.78;10444929;28;20053;-69
2023/11/05 04:14:22;;;;;;;1.10;0.10;;;;;;;12.27;73.80;96346.66;10446901;28;20049;-68
2023/11/05 04:19:23;;;;;;;0.60;0.10;;;;;;;12.30;73.72;96328.06;10425598;28;20112;-69
2023/11/05 04:24:25;;;;;;;2.35;0.17;;;;;;;12.28;73.46;96318.63;10433686;28;20045;-69
2023/11/05 04:29:26;;;;;;;2.60;0.20;;;;;;;12.25;73.65;96313.84;10438925;28;20045;-69
2023/11/05 04:34:32;;;;;;;1.85;0.13;;;;;;;12.18;73.57;96316.06;10440113;28;20041;-70
2023/11/05 04:39:33;;;;;;;3.03;0.20;;;;;;;11.92;74.76;96313.66;10443573;28;20895;-71
2023/11/05 04:44:36;;;;;;;1.88;0.10;;;;;;;11.88;74.43;96307.19;10402693;28;20401;-70
2023/11/05 04:49:37;;;;;;;1.88;0.10;;;;;;;11.79;75.15;96304.34;10424723;28;20061;-72
2023/11/05 04:54:40;;;;;;;2.17;0.20;;;;;;;11.75;75.52;96302.47;10430646;28;20050;-71
2023/11/05 04:59:44;;;;;;;3.45;0.88;;;;;;;11.77;75.17;96303.81;10434818;28;20053;-71
2023/11/05 05:04:46;;;;;;;2.22;0.10;;;;;;;11.83;75.39;96307.25;10424514;28;20067;-70
2023/11/05 05:09:47;;;;;;;0.95;0.10;;;;;;;11.95;74.83;96309.56;10421883;28;20055;-70
2023/11/05 05:14:49;;;;;;;3.95;0.65;;;;;;;12.05;74.70;96302.22;10442273;28;20128;-69
2023/11/05 05:19:50;;;;;;;2.10;0.10;;;;;;;12.05;74.79;96309.50;10431416;28;20047;-69
2023/11/05 05:24:52;;;;;;;9.10;0.80;;;;;;;12.14;74.87;96313.13;10431073;28;20037;-68
2023/11/05 05:29:54;;;;;;;1.80;0.10;;;;;;;12.16;74.35;96310.97;10436919;28;20041;-70
2023/11/05 05:34:55;;;;;;;1.35;0.08;;;;;;;12.25;74.60;96313.84;10431862;28;20054;-70
2023/11/05 05:39:56;;;;;;;1.38;0.25;;;;;;;12.32;74.18;96319.66;10430716;28;20049;-70
2023/11/05 05:44:58;;;;;;;2.63;0.17;;;;;;;12.45;74.00;96328.97;10436051;28;20049;-68
2023/11/05 05:49:59;;;;;;;1.95;0.20;;;;;;;12.54;73.50;96332.63;10427026;28;20439;-69
2023/11/05 05:55:04;;;;;;;1.90;0.20;;;;;;;12.54;73.46;96319.16;10452051;28;20052;-70
2023/11/05 06:00:09;;;;;;;0.90;0.20;;;;;;;12.54;73.52;96323.72;10448051;28;20063;-69
2023/11/05 06:05:10;;;;;;;0.90;0.20;;;;;;;12.54;73.43;96332.63;10448709;28;20041;-69
2023/11/05 06:10:12;;;;;;;2.75;0.28;;;;;;;12.53;73.29;96338.31;10450820;28;20127;-70
2023/11/05 06:15:14;;;;;;;1.08;0.10;;;;;;;12.50;73.59;96339.69;10431416;28;20128;-70
2023/11/05 06:20:15;;;;;;;4.57;0.20;;;;;;;12.50;73.75;96337.78;10433718;28;20081;-67
2023/11/05 06:25:17;;;;;;;4.55;0.65;;;;;;;12.50;73.68;96347.78;10432774;28;20051;-65
2023/11/05 06:30:19;;;;;;;2.53;0.20;;;;;;;12.62;73.14;96347.38;10417131;28;20060;-67
2023/11/05 06:35:20;;;;;;;0.75;0.13;;;;;;;12.70;73.18;96349.41;10412612;28;20068;-66
2023/11/05 06:40:22;;;;;;;4.63;0.70;;;;;;;12.68;72.91;96349.69;10418841;28;20045;-66
2023/11/05 06:45:23;;;;;;;0.52;0.40;;;;;;;12.75;72.73;96357.41;10406182;28;20628;-66
2023/11/05 06:50:25;;;;;;;7.03;1.02;;;;;;;12.76;73.03;96367.13;10420768;28;20055;-66
2023/11/05 06:55:26;;;;;;;1.88;0.20;;;;;;;12.78;73.14;96364.13;10422757;28;20049;-65
2023/11/05 07:00:29;;;;;;;0.88;0.10;;;;;;;12.86;72.55;96361.59;10420894;28;20046;-65
2023/11/05 07:05:30;;;;;;;4.65;0.10;;;;;;;12.90;72.32;96365.31;10422305;28;20042;-65
2023/11/05 07:10:32;;;;;;;1.10;0.10;;;;;;;12.98;72.14;96371.16;10420297;28;20057;-66
2023/11/05 07:15:33;;;;;;;0.38;0.10;;;;;;;13.02;72.07;96374.88;10424452;28;20172;-65
2023/11/05 07:20:36;;;;;;;1.40;0.10;;;;;;;13.05;71.83;96372.41;10433921;28;20033;-65
2023/11/05 07:25:38;;;;;;;7.10;0.22;;;;;;;13.14;71.73;96377.94;10433794;28;21559;-65
2023/11/05 07:30:40;;;;;;;1.95;0.20;;;;;;;13.18;71.58;96370.88;10439198;28;20670;-64
2023/11/05 07:35:41;;;;;;;2.35;0.68;;;;;;;13.31;71.44;96376.66;10440424;28;20032;-66
2023/11/05 07:40:43;;;;;;;0.88;0.05;;;;;;;13.32;71.22;96391.75;10423647;28;20040;-64
2023/11/05 07:45:44;;;;;;;2.72;0.10;;;;;;;13.38;70.98;96383.28;10399151;28;20045;-64
2023/11/05 07:50:48;;;;;;;0.98;0.03;;;;;;;13.28;71.46;96395.00;10422491;28;20051;-64
2023/11/05 07:55:49;;;;;;;1.17;0.00;;;;;;;13.37;71.04;96405.97;10413809;28;20037;-65
2023/11/05 08:00:51;;;;;;;0.25;0.10;;;;;;;13.45;70.52;96408.00;10414450;28;20381;-64
2023/11/05 08:05:52;;;;;;;1.00;0.00;;;;;;;13.54;70.08;96423.53;10403776;28;20121;-63
2023/11/05 08:10:54;;;;;;;0.60;0.00;;;;;;;13.64;69.12;96420.69;10415366;28;20046;-64
2023/11/05 08:15:55;;;;;;;0.22;0.00;;;;;;;13.79;69.24;96439.34;10414890;28;20400;-63
2023/11/05 08:20:57;;;;;;;0.82;0.00;;;;;;;13.66;69.94;96451.69;10420437;28;20049;-66
2023/11/05 08:25:59;;;;;;;0.28;0.00;;;;;;;13.31;70.80;96460.25;10408099;28;20045;-66
2023/11/05 08:31:01;;;;;;;0.38;0.30;;;;;;;13.29;71.29;96463.25;10404455;28;20045;-67
2023/11/05 08:36:02;;;;;;;2.05;0.00;;;;;;;13.39;71.05;96473.09;10411293;28;20035;-67
2023/11/05 08:41:04;;;;;;;0.40;0.00;;;;;;;13.51;70.51;96472.66;10432716;28;20046;-67
2023/11/05 08:46:05;;;;;;;2.40;0.10;;;;;;;13.56;70.08;96469.91;10413408;28;20060;-65
2023/11/05 08:51:07;;;;;;;0.20;0.00;;;;;;;13.69;69.72;96475.38;10436388;28;20053;-66
2023/11/05 08:56:09;;;;;;;1.00;0.10;;;;;;;13.75;69.34;96465.31;10410422;28;20410;-66
2023/11/05 09:01:10;;;;;;;0.68;0.00;;;;;;;13.59;69.65;96480.94;10421234;28;20497;-66
2023/11/05 09:06:12;;;;;;;0.00;0.00;;;;;;;13.65;69.39;96500.56;10424242;28;20045;-65
2023/11/05 09:11:14;;;;;;;2.30;0.10;;;;;;;13.81;69.20;96498.44;10416290;28;20877;-65
2023/11/05 09:16:15;;;;;;;1.73;0.00;;;;;;;13.84;68.87;96514.88;10436019;28;20664;-65
2023/11/05 09:21:17;;;;;;;1.55;0.10;;;;;;;13.69;69.13;96533.97;10434333;28;20079;-66
2023/11/05 09:26:19;;;;;;;0.15;0.00;;;;;;;13.37;69.87;96558.91;10407934;28;20192;-67
2023/11/05 09:31:21;;;;;;;0.57;0.00;;;;;;;13.04;71.06;96572.19;10412875;28;20049;-66
2023/11/05 09:36:23;;;;;;;0.75;0.10;;;;;;;12.55;72.99;96594.72;10433868;28;20041;-66
2023/11/05 09:41:26;;;;;;;0.10;0.10;;;;;;;12.40;73.34;96607.25;10424363;28;20053;-66
2023/11/05 09:46:28;;;;;;;1.25;0.10;;;;;;;12.32;73.85;96617.78;10411396;28;20051;-67
2023/11/05 09:51:30;;;;;;;2.95;0.10;;;;;;;12.34;74.69;96618.31;10427244;28;20077;-67
2023/11/05 09:56:31;;;;;;;0.70;0.10;;;;;;;12.33;75.10;96638.25;10419895;28;20480;-67
2023/11/05 10:01:35;;;;;;;0.55;0.10;;;;;;;12.28;75.80;96639.06;10424125;28;20041;-66
2023/11/05 10:06:37;;;;;;;2.38;0.20;;;;;;;12.30;75.74;96644.97;10425016;28;20485;-67
2023/11/05 10:11:42;;;;;;;0.55;0.10;;;;;;;12.38;76.01;96657.06;10422028;28;20064;-67
2023/11/05 10:16:44;;;;;;;0.10;0.05;;;;;;;12.50;75.67;96676.41;10412008;28;20068;-66
2023/11/05 10:21:45;;;;;;;2.00;0.13;;;;;;;12.59;75.99;96682.78;10421811;28;20046;-65
2023/11/05 10:26:48;;;;;;;0.30;0.00;;;;;;;12.78;75.88;96698.31;10424799;28;20045;-65
2023/11/05 10:31:50;;;;;;;0.73;0.10;;;;;;;12.86;76.21;96709.28;10431635;28;20049;-66
2023/11/05 10:36:52;;;;;;;0.50;0.10;;;;;;;12.92;76.21;96723.53;10413049;28;20045;-65
2023/11/05 10:41:53;;;;;;;0.57;0.00;;;;;;;12.97;76.15;96730.75;10429102;28;20053;-65
2023/11/05 10:46:57;;;;;;;0.45;0.20;;;;;;;13.12;75.89;96737.94;10422065;28;20055;-65
2023/11/05 10:51:59;;;;;;;0.10;0.00;;;;;;;13.21;75.75;96741.63;10422574;28;20045;-66
2023/11/05 10:57:14;;;;;;;0.10;0.00;;;;;;;13.23;75.77;96751.06;10415154;28;20055;-67
2023/11/05 11:02:16;;;;;;;0.40;0.00;;;;;;;13.35;75.65;96764.22;10418729;28;20037;-67
2023/11/05 11:07:17;;;;;;;0.20;0.05;;;;;;;13.37;75.55;96777.41;10421970;28;20441;-65
2023/11/05 11:12:32;;;;;;;0.15;0.10;;;;;;;13.35;75.53;96776.88;10421994;28;20080;-66
2023/11/05 11:17:37;;;;;;;0.25;0.00;;;;;;;13.41;75.42;96786.56;10421457;28;20136;-67
2023/11/05 11:22:45;;;;;;;0.95;0.10;;;;;;;13.52;75.20;96793.47;10407863;28;20045;-66
2023/11/05 11:27:50;;;;;;;0.77;0.15;;;;;;;13.63;74.81;96805.00;10426387;28;20583;-64
2023/11/05 11:32:53;;;;;;;2.88;0.00;;;;;;;13.60;74.94;96811.75;10440355;28;20637;-63
2023/11/05 11:37:56;;;;;;;0.28;0.00;;;;;;;13.67;74.65;96804.13;10416460;28;20036;-64
2023/11/05 11:42:57;;;;;;;0.40;0.10;;;;;;;13.76;74.60;96825.13;10412837;28;20076;-63
2023/11/05 11:48:05;;;;;;;0.05;0.00;;;;;;;13.76;74.42;96838.63;10435443;28;20047;-64
2023/11/05 11:53:09;;;;;;;1.38;0.20;;;;;;;13.66;74.58;96842.19;10424600;28;20135;-61
2023/11/05 11:58:10;;;;;;;0.35;0.08;;;;;;;13.67;74.60;96863.50;10428657;28;20052;-65
2023/11/05 12:03:12;;;;;;;0.32;0.10;;;;;;;13.52;74.79;96868.22;10419876;28;20053;-64
2023/11/05 12:08:15;;;;;;;1.38;0.10;;;;;;;13.40;75.36;96877.47;10424725;28;20056;-63
2023/11/05 12:13:16;;;;;;;1.23;0.15;;;;;;;13.46;75.07;96887.13;10434819;28;20085;-64
2023/11/05 12:18:18;;;;;;;1.75;0.10;;;;;;;13.61;74.73;96894.34;10423710;28;20547;-65
2023/11/05 12:23:20;;;;;;;0.30;0.10;;;;;;;13.62;74.86;96904.03;10431469;28;20148;-65
2023/11/05 12:28:22;;;;;;;0.30;0.10;;;;;;;13.70;74.70;96916.13;10403141;28;20041;-65
2023/11/05 12:33:24;;;;;;;0.28;0.00;;;;;;;13.73;74.84;96922.88;10436976;28;20128;-65
2023/11/05 12:38:27;;;;;;;0.28;0.08;;;;;;;13.69;74.88;96944.22;10365413;28;20042;-64
2023/11/05 12:43:28;;;;;;;0.50;0.10;;;;;;;13.58;75.12;96964.25;10406516;28;20048;-64
2023/11/05 12:48:30;;;;;;;1.23;0.08;;;;;;;13.18;76.11;96987.63;10410013;28;20041;-63
2023/11/05 12:53:34;;;;;;;0.22;0.00;;;;;;;12.92;77.07;97001.19;10420407;28;20118;-65
2023/11/05 12:58:37;;;;;;;0.10;0.10;;;;;;;13.01;76.96;97001.41;10416713;28;20056;-66
2023/11/05 13:03:39;;;;;;;0.00;0.00;;;;;;;12.84;77.40;97016.03;10419835;28;20543;-65
2023/11/05 13:08:41;;;;;;;1.13;0.03;;;;;;;12.86;77.57;97026.56;10435416;28;20057;-63
2023/11/05 13:13:43;;;;;;;0.20;0.03;;;;;;;12.88;77.84;97044.06;10417501;28;20045;-61
2023/11/05 13:18:44;;;;;;;0.10;0.10;;;;;;;12.92;78.07;97040.84;10409904;28;20148;-61
2023/11/05 13:23:47;;;;;;;1.27;0.05;;;;;;;12.99;77.96;97052.91;10418901;28;20045;-62
2023/11/05 13:28:49;;;;;;;1.65;0.00;;;;;;;12.99;78.16;97062.91;10422595;28;20219;-63
2023/11/05 13:33:50;;;;;;;0.13;0.00;;;;;;;13.07;78.07;97082.03;10413418;28;20041;-63
2023/11/05 13:38:52;;;;;;;0.28;0.10;;;;;;;13.18;77.59;97100.91;10423494;28;20123;-64
2023/11/05 13:43:54;;;;;;;0.93;0.00;;;;;;;13.29;77.34;97105.19;10406189;28;20370;-62
2023/11/05 13:48:55;;;;;;;0.13;0.00;;;;;;;13.39;77.00;97117.84;10376032;28;20041;-63
2023/11/05 13:53:57;;;;;;;0.77;0.00;;;;;;;13.55;76.42;97129.44;10394730;28;20050;-62
2023/11/05 13:58:59;;;;;;;0.73;0.10;;;;;;;13.69;76.06;97155.56;10395541;28;20041;-63
2023/11/05 14:04:00;;;;;;;0.22;0.08;;;;;;;13.62;76.08;97165.03;10399432;28;20120;-65
2023/11/05 14:09:02;;;;;;;0.00;0.00;;;;;;;13.52;75.83;97187.44;10403748;28;20141;-63
2023/11/05 14:14:07;;;;;;;0.20;0.00;;;;;;;13.14;76.57;97218.50;10412984;28;20060;-62
2023/11/05 14:19:09;;;;;;;0.88;0.10;;;;;;;12.74;77.25;97231.69;10440301;28;20492;-61
2023/11/05 14:24:10;;;;;;;0.82;0.10;;;;;;;12.58;77.89;97235.38;10450859;28;20434;-62
2023/11/05 14:29:12;;;;;;;3.63;0.10;;;;;;;12.39;78.26;97241.28;10453852;28;20056;-63
2023/11/05 14:34:13;;;;;;;1.65;0.08;;;;;;;12.33;78.39;97239.66;10455194;28;20048;-64
2023/11/05 14:39:15;;;;;;;0.40;0.20;;;;;;;12.17;78.45;97267.59;10439047;28;20136;-63
2023/11/05 14:44:18;;;;;;;1.25;0.10;;;;;;;12.18;78.29;97274.59;10456861;28;20037;-63
2023/11/05 14:49:19;;;;;;;1.27;0.10;;;;;;;12.33;77.82;97280.03;10455377;28;20044;-62
2023/11/05 14:54:20;;;;;;;0.60;0.15;;;;;;;12.39;77.70;97289.75;10450671;28;20051;-62
2023/11/05 14:59:22;;;;;;;0.20;0.10;;;;;;;12.56;77.77;97310.28;10441790;28;20387;-63
2023/11/05 15:04:23;;;;;;;0.57;0.10;;;;;;;12.60;78.05;97323.00;10449836;28;20052;-63
2023/11/05 15:09:25;;;;;;;0.98;0.50;;;;;;;12.78;77.87;97343.25;10421961;28;20047;-64
2023/11/05 15:14:26;;;;;;;0.95;0.10;;;;;;;12.93;77.42;97357.88;10441302;28;20069;-61
2023/11/05 15:19:29;;;;;;;0.75;0.15;;;;;;;12.99;77.63;97381.06;10392370;28;20050;-61
2023/11/05 15:24:30;;;;;;;0.63;0.10;;;;;;;12.89;77.57;97393.47;10382095;28;20045;-61
2023/11/05 15:29:32;;;;;;;0.10;0.00;;;;;;;12.78;77.61;97413.34;10412830;28;20048;-63
2023/11/05 15:34:39;;;;;;;;;;;;;;;12.77;77.30;97427.88;10407104;28;20119;-63
2023/11/05 15:39:42;;;;;;;1.20;0.10;;;;;;;12.44;77.38;97439.81;10397851;28;19924;-61
2023/11/05 15:44:43;;;;;;;0.30;0.00;;;;;;;12.04;77.94;97450.06;10396885;28;20504;-63
2023/11/05 15:49:48;;;;;;;2.38;0.30;;;;;;;11.87;78.30;97478.97;10404410;28;20102;-62
2023/11/05 15:54:50;;;;;;;1.75;0.00;;;;;;;11.81;78.62;97502.34;10411785;28;20831;-61
2023/11/05 15:59:52;;;;;;;0.40;0.30;;;;;;;11.86;78.11;97518.50;10393701;28;20073;-68
2023/11/05 16:04:53;;;;;;;0.95;0.10;;;;;;;12.03;77.92;97547.25;10399891;28;20497;-62
2023/11/05 16:09:57;;;;;;;0.20;0.10;;;;;;;12.16;77.58;97564.88;10403269;28;20412;-63
2023/11/05 16:14:58;;;;;;;0.40;0.20;;;;;;;12.13;77.78;97584.25;10396510;28;20590;-62
2023/11/05 16:20:00;;;;;;;0.10;0.10;;;;;;;12.07;77.33;97599.53;10367052;28;20481;-63
2023/11/05 16:25:01;;;;;;;0.40;0.20;;;;;;;12.09;77.53;97627.81;10411782;28;20045;-63
2023/11/05 16:30:05;;;;;;;0.88;0.10;;;;;;;12.08;77.03;97650.44;10437991;28;20052;-65
2023/11/05 16:35:07;;;;;;;0.98;0.30;;;;;;;12.09;76.46;97657.44;10438136;28;20049;-63
2023/11/05 16:40:11;;;;;;;0.77;0.20;;;;;;;12.15;76.30;97674.47;10432612;28;20200;-64
2023/11/05 16:45:13;;;;;;;1.85;0.30;;;;;;;12.23;76.00;97694.75;10432229;28;20065;-63
2023/11/05 16:50:15;;;;;;;0.55;0.20;;;;;;;12.27;75.67;97725.50;10434830;28;20049;-65
2023/11/05 16:55:20;;;;;;;1.98;0.40;;;;;;;12.22;75.51;97749.69;10430740;28;20052;-65
2023/11/05 17:00:23;;;;;;;1.38;0.40;;;;;;;12.24;75.17;97758.31;10439828;28;20404;-71
2023/11/05 17:05:29;;;;;;;1.85;0.40;;;;;;;12.20;74.74;97779.53;10404391;28;20045;-71
2023/11/05 17:10:35;;;;;;;0.95;0.30;;;;;;;12.18;73.73;97795.13;10440631;28;20130;-71
2023/11/05 17:15:39;;;;;;;0.93;0.30;;;;;;;12.17;73.49;97800.81;10411996;28;20052;-72
2023/11/05 17:20:42;;;;;;;3.38;0.30;;;;;;;12.26;73.30;97818.13;10412580;28;20044;-72
2023/11/05 17:25:44;;;;;;;3.72;0.32;;;;;;;12.28;73.32;97846.47;10433071;28;20159;-72
2023/11/05 17:30:47;;;;;;;2.80;0.20;;;;;;;12.33;73.48;97869.97;10458545;28;20051;-72
2023/11/05 17:35:49;;;;;;;0.25;0.20;;;;;;;12.25;73.85;97881.97;10455407;28;20108;-71
2023/11/05 17:40:51;;;;;;;3.55;0.45;;;;;;;12.22;73.62;97892.41;10444259;28;20191;-74
2023/11/05 17:45:52;;;;;;;2.80;0.73;;;;;;;12.19;73.78;97917.16;10387133;28;20049;-75
2023/11/05 17:50:54;;;;;;;2.13;0.20;;;;;;;12.17;73.96;97930.88;10425679;28;20037;-72
2023/11/05 17:56:00;;;;;;;3.90;1.08;;;;;;;12.25;73.97;97948.50;10406196;28;20049;-73
2023/11/05 18:01:04;;;;;;;2.15;0.20;;;;;;;12.22;73.74;97959.75;10432200;28;20064;-73
2023/11/05 18:06:05;;;;;;;3.22;0.25;;;;;;;12.24;73.90;97981.88;10426908;28;20058;-73
2023/11/05 18:11:08;;;;;;;0.88;0.30;;;;;;;12.28;73.10;97994.63;10410295;28;20111;-71
2023/11/05 18:16:14;;;;;;;1.98;0.38;;;;;;;12.26;72.87;98004.00;10394734;28;20621;-71
2023/11/05 18:21:17;;;;;;;1.80;0.50;;;;;;;12.27;72.93;98016.41;10379491;28;20565;-75
2023/11/05 18:26:22;;;;;;;1.35;0.63;;;;;;;12.32;73.00;98021.06;10392990;28;20456;-70
2023/11/05 18:31:24;;;;;;;1.52;0.45;;;;;;;12.30;72.65;98043.69;10421929;28;20111;-73
2023/11/05 18:36:25;;;;;;;1.98;0.80;;;;;;;12.27;72.44;98048.75;10402476;28;20489;-74
2023/11/05 18:41:29;;;;;;;6.60;0.73;;;;;;;12.27;72.52;98059.50;10390277;28;20080;-74
2023/11/05 18:46:31;;;;;;;1.58;0.40;;;;;;;12.30;71.76;98072.47;10433438;28;20078;-75
2023/11/05 18:51:33;;;;;;;3.25;0.93;;;;;;;12.37;71.99;98089.31;10406151;28;20513;-74
2023/11/05 18:56:35;;;;;;;0.73;0.45;;;;;;;12.46;71.87;98105.88;10408551;28;20037;-75
2023/11/05 19:01:36;;;;;;;4.57;1.08;;;;;;;12.58;71.68;98116.59;10385304;28;20077;-74
2023/11/05 19:06:38;;;;;;;4.53;0.70;;;;;;;12.61;71.55;98127.69;10393135;28;20457;-75
2023/11/05 19:11:39;;;;;;;2.88;0.40;;;;;;;12.67;71.03;98134.00;10415390;28;20103;-73
2023/11/05 19:16:41;;;;;;;1.83;0.73;;;;;;;12.74;71.26;98144.63;10386579;28;20048;-75
2023/11/05 19:21:43;;;;;;;2.75;0.38;;;;;;;12.70;71.03;98168.56;10395411;28;20041;-75
2023/11/05 19:26:45;;;;;;;0.88;0.40;;;;;;;12.72;71.23;98176.38;10385904;28;20145;-73
2023/11/05 19:31:49;;;;;;;5.10;1.70;;;;;;;12.80;71.01;98195.69;10387226;28;20152;-72
2023/11/05 19:36:51;;;;;;;1.08;0.22;;;;;;;12.74;71.07;98199.38;10400994;28;20049;-75
2023/11/05 19:41:53;;;;;;;2.65;1.15;;;;;;;12.74;71.17;98206.63;10399736;28;20029;-76
2023/11/05 19:46:55;;;;;;;1.75;0.30;;;;;;;12.75;71.01;98213.66;10380626;28;20033;-70
2023/11/05 19:51:56;;;;;;;2.80;0.30;;;;;;;12.74;70.99;98229.03;10420900;28;20045;-76
2023/11/05 19:56:58;;;;;;;0.50;0.20;;;;;;;12.72;70.83;98247.31;10385670;28;20034;-76
2023/11/05 20:02:00;;;;;;;0.93;0.20;;;;;;;12.70;70.99;98255.63;10402576;28;20560;-78
2023/11/05 20:07:16;;;;;;;1.35;0.30;;;;;;;12.69;71.08;98264.78;10407052;28;20132;-74
2023/11/05 20:12:17;;;;;;;1.52;0.40;;;;;;;12.68;71.13;98270.44;10402610;28;20136;-76
2023/11/05 20:17:19;;;;;;;2.03;0.35;;;;;;;12.71;70.95;98278.03;10429416;28;20057;-76
2023/11/05 20:22:21;;;;;;;1.98;0.30;;;;;;;12.65;71.03;98301.34;10397400;28;20057;-73
2023/11/05 20:27:23;;;;;;;1.63;0.20;;;;;;;12.59;71.00;98305.03;10384653;28;20542;-81
2023/11/05 20:32:24;;;;;;;1.17;0.25;;;;;;;12.64;70.74;98307.81;10396186;28;20069;-72
2023/11/05 20:37:26;;;;;;;2.33;0.30;;;;;;;12.64;70.62;98317.78;10407559;28;20052;-79
2023/11/05 20:42:27;;;;;;;0.70;0.40;;;;;;;12.62;70.60;98323.41;10405974;28;20088;-71
2023/11/05 20:47:30;;;;;;;1.92;0.43;;;;;;;12.63;70.83;98333.13;10420477;28;20042;-78
2023/11/05 20:52:33;;;;;;;1.98;0.40;;;;;;;12.65;70.71;98332.91;10422589;28;20080;-79
2023/11/05 20:57:39;;;;;;;3.17;0.43;;;;;;;12.66;70.41;98340.75;10414913;28;20606;-73
2023/11/05 21:02:40;;;;;;;2.80;0.30;;;;;;;12.63;70.66;98349.31;10406127;28;20140;-82
2023/11/05 21:07:42;;;;;;;1.48;0.20;;;;;;;12.66;70.62;98356.91;10407524;28;20045;-81
2023/11/05 21:12:43;;;;;;;6.32;0.47;;;;;;;12.70;70.24;98358.09;10414700;28;20053;-73
2023/11/05 21:17:45;;;;;;;4.05;0.30;;;;;;;12.68;70.62;98360.19;10450258;28;20044;-79
2023/11/05 21:22:47;;;;;;;1.17;0.28;;;;;;;12.73;70.21;98372.13;10432727;28;20052;-79
2023/11/05 21:27:50;;;;;;;4.95;0.52;;;;;;;12.72;70.00;98390.19;10438805;28;20496;-80
2023/11/05 21:32:53;;;;;;;2.05;0.30;;;;;;;12.68;70.13;98399.81;10431180;28;20599;-76
2023/11/05 21:37:54;;;;;;;1.13;0.30;;;;;;;12.64;70.34;98412.94;10402704;28;20055;-69
2023/11/05 21:42:56;;;;;;;1.35;0.20;;;;;;;12.65;69.95;98425.34;10411491;28;20165;-72
2023/11/05 21:47:58;;;;;;;1.40;0.52;;;;;;;12.66;69.89;98437.78;10392994;28;22519;-73
2023/11/05 21:53:00;;;;;;;3.53;0.30;;;;;;;12.64;69.59;98445.28;10396609;28;20041;-72
2023/11/05 21:58:01;;;;;;;1.98;0.30;;;;;;;12.58;69.96;98437.31;10396687;28;20142;-73
2023/11/05 22:03:04;;;;;;;2.50;0.22;;;;;;;12.57;69.68;98436.50;10418256;28;20045;-72
2023/11/05 22:08:09;;;;;;;4.30;0.60;;;;;;;12.55;69.57;98440.50;10410804;28;20064;-71
2023/11/05 22:13:11;;;;;;;1.38;0.20;;;;;;;12.52;69.81;98454.44;10405388;28;20072;-71
2023/11/05 22:18:13;;;;;;;3.33;0.40;;;;;;;12.49;69.41;98463.81;10412823;28;20053;-73
2023/11/05 22:23:15;;;;;;;3.13;0.20;;;;;;;12.41;69.40;98464.19;10416404;28;20049;-71
2023/11/05 22:28:16;;;;;;;1.25;0.20;;;;;;;12.49;69.22;98459.25;10407162;28;20048;-72
2023/11/05 22:33:20;;;;;;;1.65;0.20;;;;;;;12.44;69.41;98480.69;10399937;28;20091;-72
2023/11/05 22:38:22;;;;;;;2.88;0.45;;;;;;;12.32;69.49;98485.25;10435390;28;20132;-71
2023/11/05 22:43:25;;;;;;;0.32;0.15;;;;;;;12.34;69.56;98491.22;10418294;28;20069;-73
2023/11/05 22:48:27;;;;;;;8.30;0.30;;;;;;;12.27;69.42;98498.63;10411794;28;20143;-72
2023/11/05 22:53:28;;;;;;;1.88;0.10;;;;;;;12.16;69.92;98507.50;10415416;28;20109;-72
2023/11/05 22:58:30;;;;;;;2.80;0.30;;;;;;;12.05;69.77;98506.44;10410610;28;20166;-73
2023/11/05 23:03:34;;;;;;;1.85;0.20;;;;;;;12.03;70.01;98506.66;10420227;28;20167;-72
2023/11/05 23:08:35;;;;;;;1.67;0.20;;;;;;;12.00;70.09;98509.78;10413950;28;20049;-72
2023/11/05 23:13:37;;;;;;;0.75;0.20;;;;;;;12.04;70.07;98521.75;10432849;28;20057;-72
2023/11/05 23:18:39;;;;;;;1.95;0.40;;;;;;;12.07;69.97;98526.69;10399234;28;20492;-71
2023/11/05 23:23:41;;;;;;;4.38;0.40;;;;;;;12.10;69.98;98512.78;10408961;28;20076;-72